sensor_id;sensor_type;location;lat;lon;timestamp;P1;durP1;ratioP1;P2;durP2;ratioP2
59972;SDS011;55298;-36.624;-64.282;2022-10-22T00:00:25;8.73;;;5.30;;
59972;SDS011;55298;-36.624;-64.282;2022-10-22T00:02:53;7.75;;;4.47;;
59972;SDS011;55298;-36.624;-64.282;2022-10-22T00:05:21;9.23;;;4.20;;
59972;SDS011;55298;-36.624;-64.282;2022-10-22T00:07:50;5.18;;;3.70;;
59972;SDS011;55298;-36.624;-64.282;2022-10-22T00:10:18;7.22;;;4.75;;
59972;SDS011;55298;-36.624;-64.282;2022-10-22T00:12:45;5.45;;;3.92;;
59972;SDS011;55298;-36.624;-64.282;2022-10-22T00:15:13;7.25;;;4.43;;
59972;SDS011;55298;-36.624;-64.282;2022-10-22T00:17:41;5.32;;;3.78;;
59972;SDS011;55298;-36.624;-64.282;2022-10-22T00:20:10;6.63;;;3.85;;
59972;SDS011;55298;-36.624;-64.282;2022-10-22T00:22:38;6.63;;;3.60;;
59972;SDS011;55298;-36.624;-64.282;2022-10-22T00:25:05;5.97;;;3.72;;
59972;SDS011;55298;-36.624;-64.282;2022-10-22T00:27:33;7.18;;;3.67;;
59972;SDS011;55298;-36.624;-64.282;2022-10-22T00:30:03;5.85;;;3.40;;
59972;SDS011;55298;-36.624;-64.282;2022-10-22T00:32:32;6.07;;;3.60;;
59972;SDS011;55298;-36.624;-64.282;2022-10-22T00:35:00;4.90;;;3.90;;
59972;SDS011;55298;-36.624;-64.282;2022-10-22T00:37:27;4.07;;;3.67;;
59972;SDS011;55298;-36.624;-64.282;2022-10-22T00:39:56;4.35;;;3.42;;
59972;SDS011;55298;-36.624;-64.282;2022-10-22T00:42:25;4.45;;;3.97;;
59972;SDS011;55298;-36.624;-64.282;2022-10-22T00:45:00;5.30;;;4.00;;
59972;SDS011;55298;-36.624;-64.282;2022-10-22T00:47:49;7.18;;;3.67;;
59972;SDS011;55298;-36.624;-64.282;2022-10-22T00:50:22;11.15;;;3.92;;
59972;SDS011;55298;-36.624;-64.282;2022-10-22T00:52:56;9.60;;;3.58;;
59972;SDS011;55298;-36.624;-64.282;2022-10-22T00:55:24;6.70;;;3.88;;
59972;SDS011;55298;-36.624;-64.282;2022-10-22T00:57:54;5.75;;;3.70;;
59972;SDS011;55298;-36.624;-64.282;2022-10-22T01:00:23;5.30;;;3.67;;
59972;SDS011;55298;-36.624;-64.282;2022-10-22T01:02:52;6.53;;;3.83;;
59972;SDS011;55298;-36.624;-64.282;2022-10-22T01:05:20;4.78;;;3.70;;
59972;SDS011;55298;-36.624;-64.282;2022-10-22T01:07:50;4.20;;;3.72;;
59972;SDS011;55298;-36.624;-64.282;2022-10-22T01:10:31;6.15;;;3.70;;
59972;SDS011;55298;-36.624;-64.282;2022-10-22T01:13:30;6.90;;;4.90;;
59972;SDS011;55298;-36.624;-64.282;2022-10-22T01:16:16;6.15;;;4.15;;
59972;SDS011;55298;-36.624;-64.282;2022-10-22T01:22:08;5.38;;;3.92;;
59972;SDS011;55298;-36.624;-64.282;2022-10-22T01:24:58;5.10;;;4.22;;
59972;SDS011;55298;-36.624;-64.282;2022-10-22T01:30:27;6.55;;;4.18;;
59972;SDS011;55298;-36.624;-64.282;2022-10-22T01:32:57;8.00;;;4.40;;
59972;SDS011;55298;-36.624;-64.282;2022-10-22T01:35:31;6.82;;;4.28;;
59972;SDS011;55298;-36.624;-64.282;2022-10-22T01:38:04;5.22;;;3.97;;
59972;SDS011;55298;-36.624;-64.282;2022-10-22T01:40:35;6.63;;;3.80;;
59972;SDS011;55298;-36.624;-64.282;2022-10-22T01:43:06;4.35;;;3.92;;
59972;SDS011;55298;-36.624;-64.282;2022-10-22T01:45:39;6.45;;;3.70;;
59972;SDS011;55298;-36.624;-64.282;2022-10-22T01:48:21;4.68;;;4.00;;
59972;SDS011;55298;-36.624;-64.282;2022-10-22T01:54:01;5.72;;;4.25;;
59972;SDS011;55298;-36.624;-64.282;2022-10-22T01:56:53;6.93;;;3.80;;
59972;SDS011;55298;-36.624;-64.282;2022-10-22T01:59:37;7.80;;;3.92;;
59972;SDS011;55298;-36.624;-64.282;2022-10-22T02:02:26;3.85;;;3.50;;
59972;SDS011;55298;-36.624;-64.282;2022-10-22T02:05:19;7.00;;;4.18;;
59972;SDS011;55298;-36.624;-64.282;2022-10-22T02:07:54;3.80;;;3.42;;
59972;SDS011;55298;-36.624;-64.282;2022-10-22T02:10:27;4.97;;;3.70;;
59972;SDS011;55298;-36.624;-64.282;2022-10-22T02:12:57;4.72;;;3.80;;
59972;SDS011;55298;-36.624;-64.282;2022-10-22T02:15:26;5.18;;;3.90;;
59972;SDS011;55298;-36.624;-64.282;2022-10-22T02:18:01;6.25;;;3.85;;
59972;SDS011;55298;-36.624;-64.282;2022-10-22T02:20:30;6.05;;;3.65;;
59972;SDS011;55298;-36.624;-64.282;2022-10-22T02:23:01;7.78;;;3.72;;
59972;SDS011;55298;-36.624;-64.282;2022-10-22T02:25:31;4.88;;;3.67;;
59972;SDS011;55298;-36.624;-64.282;2022-10-22T02:30:45;9.07;;;4.10;;
59972;SDS011;55298;-36.624;-64.282;2022-10-22T02:33:22;4.80;;;3.72;;
59972;SDS011;55298;-36.624;-64.282;2022-10-22T02:35:55;8.50;;;3.85;;
59972;SDS011;55298;-36.624;-64.282;2022-10-22T02:38:25;7.25;;;3.95;;
59972;SDS011;55298;-36.624;-64.282;2022-10-22T02:40:55;7.80;;;3.63;;
59972;SDS011;55298;-36.624;-64.282;2022-10-22T02:43:24;6.50;;;4.05;;
59972;SDS011;55298;-36.624;-64.282;2022-10-22T02:45:54;8.50;;;4.32;;
59972;SDS011;55298;-36.624;-64.282;2022-10-22T02:48:22;8.68;;;4.15;;
59972;SDS011;55298;-36.624;-64.282;2022-10-22T02:50:49;5.32;;;3.92;;
59972;SDS011;55298;-36.624;-64.282;2022-10-22T02:53:18;9.00;;;3.95;;
59972;SDS011;55298;-36.624;-64.282;2022-10-22T02:55:47;6.03;;;4.15;;
59972;SDS011;55298;-36.624;-64.282;2022-10-22T02:58:14;10.70;;;6.07;;
59972;SDS011;55298;-36.624;-64.282;2022-10-22T03:00:43;7.07;;;3.95;;
59972;SDS011;55298;-36.624;-64.282;2022-10-22T03:03:11;5.05;;;3.78;;
59972;SDS011;55298;-36.624;-64.282;2022-10-22T03:05:39;13.10;;;5.72;;
59972;SDS011;55298;-36.624;-64.282;2022-10-22T03:08:07;7.45;;;3.92;;
59972;SDS011;55298;-36.624;-64.282;2022-10-22T03:10:34;8.20;;;4.03;;
59972;SDS011;55298;-36.624;-64.282;2022-10-22T03:13:03;6.22;;;4.05;;
59972;SDS011;55298;-36.624;-64.282;2022-10-22T03:15:32;8.57;;;3.92;;
59972;SDS011;55298;-36.624;-64.282;2022-10-22T03:18:00;9.13;;;3.70;;
59972;SDS011;55298;-36.624;-64.282;2022-10-22T03:20:29;5.88;;;3.88;;
59972;SDS011;55298;-36.624;-64.282;2022-10-22T03:22:56;5.95;;;4.53;;
59972;SDS011;55298;-36.624;-64.282;2022-10-22T03:25:25;7.05;;;3.88;;
59972;SDS011;55298;-36.624;-64.282;2022-10-22T03:28:00;5.28;;;3.67;;
59972;SDS011;55298;-36.624;-64.282;2022-10-22T03:30:33;8.25;;;4.20;;
59972;SDS011;55298;-36.624;-64.282;2022-10-22T03:33:02;6.63;;;4.00;;
59972;SDS011;55298;-36.624;-64.282;2022-10-22T03:35:29;11.10;;;4.32;;
59972;SDS011;55298;-36.624;-64.282;2022-10-22T03:38:00;10.48;;;4.57;;
59972;SDS011;55298;-36.624;-64.282;2022-10-22T03:40:27;12.30;;;4.38;;
59972;SDS011;55298;-36.624;-64.282;2022-10-22T03:42:55;8.77;;;4.30;;
59972;SDS011;55298;-36.624;-64.282;2022-10-22T03:45:26;7.63;;;5.13;;
59972;SDS011;55298;-36.624;-64.282;2022-10-22T03:47:54;10.02;;;4.35;;
59972;SDS011;55298;-36.624;-64.282;2022-10-22T03:50:22;12.00;;;4.22;;
59972;SDS011;55298;-36.624;-64.282;2022-10-22T03:52:51;7.10;;;4.50;;
59972;SDS011;55298;-36.624;-64.282;2022-10-22T03:55:18;8.30;;;4.20;;
59972;SDS011;55298;-36.624;-64.282;2022-10-22T03:57:46;8.93;;;3.75;;
59972;SDS011;55298;-36.624;-64.282;2022-10-22T04:00:13;14.18;;;4.15;;
59972;SDS011;55298;-36.624;-64.282;2022-10-22T04:02:42;7.70;;;3.83;;
59972;SDS011;55298;-36.624;-64.282;2022-10-22T04:05:09;6.38;;;4.03;;
59972;SDS011;55298;-36.624;-64.282;2022-10-22T04:07:37;8.02;;;4.03;;
59972;SDS011;55298;-36.624;-64.282;2022-10-22T04:10:07;9.98;;;4.05;;
59972;SDS011;55298;-36.624;-64.282;2022-10-22T04:12:36;9.27;;;3.95;;
59972;SDS011;55298;-36.624;-64.282;2022-10-22T04:15:03;9.45;;;4.03;;
59972;SDS011;55298;-36.624;-64.282;2022-10-22T04:17:34;9.70;;;4.22;;
59972;SDS011;55298;-36.624;-64.282;2022-10-22T04:20:03;10.93;;;4.40;;
59972;SDS011;55298;-36.624;-64.282;2022-10-22T04:22:33;9.90;;;3.83;;
59972;SDS011;55298;-36.624;-64.282;2022-10-22T04:25:02;10.32;;;4.70;;
59972;SDS011;55298;-36.624;-64.282;2022-10-22T04:27:31;17.75;;;4.78;;
59972;SDS011;55298;-36.624;-64.282;2022-10-22T04:29:59;9.95;;;3.60;;
59972;SDS011;55298;-36.624;-64.282;2022-10-22T04:32:28;10.15;;;4.07;;
59972;SDS011;55298;-36.624;-64.282;2022-10-22T04:34:56;6.72;;;4.68;;
59972;SDS011;55298;-36.624;-64.282;2022-10-22T04:37:24;12.90;;;4.60;;
59972;SDS011;55298;-36.624;-64.282;2022-10-22T04:39:51;9.63;;;5.32;;
59972;SDS011;55298;-36.624;-64.282;2022-10-22T04:42:20;7.05;;;4.07;;
59972;SDS011;55298;-36.624;-64.282;2022-10-22T04:44:47;10.65;;;4.35;;
59972;SDS011;55298;-36.624;-64.282;2022-10-22T04:47:16;10.05;;;4.60;;
59972;SDS011;55298;-36.624;-64.282;2022-10-22T04:49:43;10.20;;;4.03;;
59972;SDS011;55298;-36.624;-64.282;2022-10-22T04:52:12;9.85;;;4.25;;
59972;SDS011;55298;-36.624;-64.282;2022-10-22T04:54:40;10.93;;;5.53;;
59972;SDS011;55298;-36.624;-64.282;2022-10-22T04:57:09;9.75;;;4.30;;
59972;SDS011;55298;-36.624;-64.282;2022-10-22T04:59:36;9.45;;;4.40;;
59972;SDS011;55298;-36.624;-64.282;2022-10-22T05:02:06;8.65;;;4.78;;
59972;SDS011;55298;-36.624;-64.282;2022-10-22T05:04:35;10.07;;;4.95;;
59972;SDS011;55298;-36.624;-64.282;2022-10-22T05:07:03;11.48;;;4.88;;
59972;SDS011;55298;-36.624;-64.282;2022-10-22T05:09:31;9.15;;;5.20;;
59972;SDS011;55298;-36.624;-64.282;2022-10-22T05:12:00;8.57;;;4.60;;
59972;SDS011;55298;-36.624;-64.282;2022-10-22T05:14:28;11.45;;;5.43;;
59972;SDS011;55298;-36.624;-64.282;2022-10-22T05:16:56;10.13;;;4.75;;
59972;SDS011;55298;-36.624;-64.282;2022-10-22T05:19:25;8.85;;;4.97;;
59972;SDS011;55298;-36.624;-64.282;2022-10-22T05:21:56;9.68;;;4.55;;
59972;SDS011;55298;-36.624;-64.282;2022-10-22T05:24:26;12.60;;;4.47;;
59972;SDS011;55298;-36.624;-64.282;2022-10-22T05:26:56;8.82;;;4.95;;
59972;SDS011;55298;-36.624;-64.282;2022-10-22T05:29:24;8.48;;;4.25;;
59972;SDS011;55298;-36.624;-64.282;2022-10-22T05:31:53;13.60;;;4.97;;
59972;SDS011;55298;-36.624;-64.282;2022-10-22T05:34:21;8.00;;;4.28;;
59972;SDS011;55298;-36.624;-64.282;2022-10-22T05:36:49;16.55;;;4.40;;
59972;SDS011;55298;-36.624;-64.282;2022-10-22T05:39:17;7.72;;;4.28;;
59972;SDS011;55298;-36.624;-64.282;2022-10-22T05:41:46;9.60;;;4.47;;
59972;SDS011;55298;-36.624;-64.282;2022-10-22T05:44:15;10.40;;;4.75;;
59972;SDS011;55298;-36.624;-64.282;2022-10-22T05:46:42;6.82;;;4.47;;
59972;SDS011;55298;-36.624;-64.282;2022-10-22T05:49:11;8.55;;;3.95;;
59972;SDS011;55298;-36.624;-64.282;2022-10-22T05:51:40;14.13;;;5.10;;
59972;SDS011;55298;-36.624;-64.282;2022-10-22T05:54:15;7.82;;;4.68;;
59972;SDS011;55298;-36.624;-64.282;2022-10-22T05:56:44;8.70;;;4.60;;
59972;SDS011;55298;-36.624;-64.282;2022-10-22T05:59:13;10.55;;;4.70;;
59972;SDS011;55298;-36.624;-64.282;2022-10-22T06:01:40;8.20;;;4.65;;
59972;SDS011;55298;-36.624;-64.282;2022-10-22T06:04:09;8.18;;;5.28;;
59972;SDS011;55298;-36.624;-64.282;2022-10-22T06:09:21;9.32;;;4.35;;
59972;SDS011;55298;-36.624;-64.282;2022-10-22T06:12:02;10.68;;;4.95;;
59972;SDS011;55298;-36.624;-64.282;2022-10-22T06:14:33;7.93;;;4.80;;
59972;SDS011;55298;-36.624;-64.282;2022-10-22T06:17:01;12.50;;;4.70;;
59972;SDS011;55298;-36.624;-64.282;2022-10-22T06:19:28;18.17;;;4.75;;
59972;SDS011;55298;-36.624;-64.282;2022-10-22T06:21:56;12.32;;;4.93;;
59972;SDS011;55298;-36.624;-64.282;2022-10-22T06:24:23;7.07;;;4.72;;
59972;SDS011;55298;-36.624;-64.282;2022-10-22T06:26:52;8.38;;;4.43;;
59972;SDS011;55298;-36.624;-64.282;2022-10-22T06:29:19;6.28;;;4.10;;
59972;SDS011;55298;-36.624;-64.282;2022-10-22T06:31:48;13.02;;;4.45;;
59972;SDS011;55298;-36.624;-64.282;2022-10-22T06:34:15;6.45;;;3.72;;
59972;SDS011;55298;-36.624;-64.282;2022-10-22T06:36:44;6.43;;;4.03;;
59972;SDS011;55298;-36.624;-64.282;2022-10-22T06:39:15;7.38;;;4.43;;
59972;SDS011;55298;-36.624;-64.282;2022-10-22T06:41:43;6.47;;;4.32;;
59972;SDS011;55298;-36.624;-64.282;2022-10-22T06:44:13;9.07;;;4.82;;
59972;SDS011;55298;-36.624;-64.282;2022-10-22T06:46:43;8.00;;;4.78;;
59972;SDS011;55298;-36.624;-64.282;2022-10-22T06:49:11;12.88;;;5.07;;
59972;SDS011;55298;-36.624;-64.282;2022-10-22T06:51:41;5.25;;;4.72;;
59972;SDS011;55298;-36.624;-64.282;2022-10-22T06:54:09;9.65;;;4.47;;
59972;SDS011;55298;-36.624;-64.282;2022-10-22T06:56:38;9.48;;;4.18;;
59972;SDS011;55298;-36.624;-64.282;2022-10-22T06:59:06;8.63;;;4.40;;
59972;SDS011;55298;-36.624;-64.282;2022-10-22T07:01:34;10.77;;;4.47;;
59972;SDS011;55298;-36.624;-64.282;2022-10-22T07:04:02;5.35;;;4.20;;
59972;SDS011;55298;-36.624;-64.282;2022-10-22T07:06:33;10.25;;;4.28;;
59972;SDS011;55298;-36.624;-64.282;2022-10-22T07:09:00;8.98;;;4.20;;
59972;SDS011;55298;-36.624;-64.282;2022-10-22T07:11:30;9.23;;;3.83;;
59972;SDS011;55298;-36.624;-64.282;2022-10-22T07:14:05;5.90;;;3.97;;
59972;SDS011;55298;-36.624;-64.282;2022-10-22T07:16:34;8.02;;;4.65;;
59972;SDS011;55298;-36.624;-64.282;2022-10-22T07:19:02;7.30;;;4.25;;
59972;SDS011;55298;-36.624;-64.282;2022-10-22T07:21:31;6.18;;;4.10;;
59972;SDS011;55298;-36.624;-64.282;2022-10-22T07:23:58;8.02;;;4.65;;
59972;SDS011;55298;-36.624;-64.282;2022-10-22T07:26:27;8.00;;;4.38;;
59972;SDS011;55298;-36.624;-64.282;2022-10-22T07:28:57;8.27;;;4.18;;
59972;SDS011;55298;-36.624;-64.282;2022-10-22T07:31:26;10.98;;;3.80;;
59972;SDS011;55298;-36.624;-64.282;2022-10-22T07:33:54;11.32;;;4.57;;
59972;SDS011;55298;-36.624;-64.282;2022-10-22T07:36:25;4.40;;;3.55;;
59972;SDS011;55298;-36.624;-64.282;2022-10-22T07:38:54;5.85;;;4.78;;
59972;SDS011;55298;-36.624;-64.282;2022-10-22T07:41:24;7.28;;;4.50;;
59972;SDS011;55298;-36.624;-64.282;2022-10-22T07:43:53;10.88;;;4.95;;
59972;SDS011;55298;-36.624;-64.282;2022-10-22T07:46:22;7.05;;;4.47;;
59972;SDS011;55298;-36.624;-64.282;2022-10-22T07:48:50;6.10;;;4.50;;
59972;SDS011;55298;-36.624;-64.282;2022-10-22T07:51:19;8.35;;;5.03;;
59972;SDS011;55298;-36.624;-64.282;2022-10-22T07:53:46;12.63;;;5.03;;
59972;SDS011;55298;-36.624;-64.282;2022-10-22T07:56:15;6.32;;;3.95;;
59972;SDS011;55298;-36.624;-64.282;2022-10-22T07:58:43;7.72;;;4.72;;
59972;SDS011;55298;-36.624;-64.282;2022-10-22T08:01:12;7.88;;;4.65;;
59972;SDS011;55298;-36.624;-64.282;2022-10-22T08:03:40;9.07;;;4.75;;
59972;SDS011;55298;-36.624;-64.282;2022-10-22T08:06:09;7.80;;;4.05;;
59972;SDS011;55298;-36.624;-64.282;2022-10-22T08:08:40;7.22;;;4.50;;
59972;SDS011;55298;-36.624;-64.282;2022-10-22T08:11:10;10.63;;;4.55;;
59972;SDS011;55298;-36.624;-64.282;2022-10-22T08:13:38;8.85;;;4.40;;
59972;SDS011;55298;-36.624;-64.282;2022-10-22T08:16:07;9.88;;;4.30;;
59972;SDS011;55298;-36.624;-64.282;2022-10-22T08:18:34;6.82;;;3.97;;
59972;SDS011;55298;-36.624;-64.282;2022-10-22T08:21:03;4.60;;;4.20;;
59972;SDS011;55298;-36.624;-64.282;2022-10-22T08:23:33;5.15;;;4.00;;
59972;SDS011;55298;-36.624;-64.282;2022-10-22T08:26:02;6.22;;;4.07;;
59972;SDS011;55298;-36.624;-64.282;2022-10-22T08:28:29;7.70;;;4.50;;
59972;SDS011;55298;-36.624;-64.282;2022-10-22T08:31:02;6.27;;;4.20;;
59972;SDS011;55298;-36.624;-64.282;2022-10-22T08:33:32;5.95;;;4.43;;
59972;SDS011;55298;-36.624;-64.282;2022-10-22T08:35:59;5.97;;;4.20;;
59972;SDS011;55298;-36.624;-64.282;2022-10-22T08:38:28;10.55;;;4.75;;
59972;SDS011;55298;-36.624;-64.282;2022-10-22T08:40:59;13.00;;;5.13;;
59972;SDS011;55298;-36.624;-64.282;2022-10-22T08:49:40;9.20;;;4.43;;
59972;SDS011;55298;-36.624;-64.282;2022-10-22T08:52:12;7.55;;;4.82;;
59972;SDS011;55298;-36.624;-64.282;2022-10-22T09:00:13;7.82;;;4.88;;
59972;SDS011;55298;-36.624;-64.282;2022-10-22T09:05:55;7.93;;;5.10;;
59972;SDS011;55298;-36.624;-64.282;2022-10-22T09:08:33;8.00;;;6.13;;
59972;SDS011;55298;-36.624;-64.282;2022-10-22T09:11:18;7.03;;;5.13;;
59972;SDS011;55298;-36.624;-64.282;2022-10-22T09:13:56;11.50;;;4.90;;
59972;SDS011;55298;-36.624;-64.282;2022-10-22T09:24:57;16.40;;;5.90;;
59972;SDS011;55298;-36.624;-64.282;2022-10-22T09:27:39;6.55;;;5.53;;
59972;SDS011;55298;-36.624;-64.282;2022-10-22T09:30:12;10.45;;;6.00;;
59972;SDS011;55298;-36.624;-64.282;2022-10-22T09:32:44;8.32;;;5.20;;
59972;SDS011;55298;-36.624;-64.282;2022-10-22T09:35:13;7.35;;;5.90;;
59972;SDS011;55298;-36.624;-64.282;2022-10-22T09:37:48;9.65;;;5.40;;
59972;SDS011;55298;-36.624;-64.282;2022-10-22T09:40:17;10.65;;;5.88;;
59972;SDS011;55298;-36.624;-64.282;2022-10-22T09:42:45;10.68;;;5.43;;
59972;SDS011;55298;-36.624;-64.282;2022-10-22T09:45:20;6.72;;;5.65;;
59972;SDS011;55298;-36.624;-64.282;2022-10-22T09:50:42;7.80;;;5.35;;
59972;SDS011;55298;-36.624;-64.282;2022-10-22T09:53:18;9.82;;;5.50;;
59972;SDS011;55298;-36.624;-64.282;2022-10-22T09:55:55;10.23;;;5.57;;
59972;SDS011;55298;-36.624;-64.282;2022-10-22T09:58:27;6.35;;;5.25;;
59972;SDS011;55298;-36.624;-64.282;2022-10-22T10:00:57;6.93;;;4.40;;
59972;SDS011;55298;-36.624;-64.282;2022-10-22T10:03:28;10.98;;;4.90;;
59972;SDS011;55298;-36.624;-64.282;2022-10-22T10:05:58;11.32;;;5.45;;
59972;SDS011;55298;-36.624;-64.282;2022-10-22T10:08:27;7.10;;;4.50;;
59972;SDS011;55298;-36.624;-64.282;2022-10-22T10:11:05;13.27;;;5.40;;
59972;SDS011;55298;-36.624;-64.282;2022-10-22T10:13:46;5.40;;;4.53;;
59972;SDS011;55298;-36.624;-64.282;2022-10-22T10:22:16;8.82;;;4.72;;
59972;SDS011;55298;-36.624;-64.282;2022-10-22T10:24:55;6.20;;;4.63;;
59972;SDS011;55298;-36.624;-64.282;2022-10-22T10:27:37;9.23;;;4.55;;
59972;SDS011;55298;-36.624;-64.282;2022-10-22T10:30:21;11.30;;;5.22;;
59972;SDS011;55298;-36.624;-64.282;2022-10-22T10:32:54;10.60;;;5.32;;
59972;SDS011;55298;-36.624;-64.282;2022-10-22T10:38:37;5.38;;;4.28;;
59972;SDS011;55298;-36.624;-64.282;2022-10-22T10:41:18;6.82;;;4.20;;
59972;SDS011;55298;-36.624;-64.282;2022-10-22T10:49:53;11.27;;;4.78;;
59972;SDS011;55298;-36.624;-64.282;2022-10-22T10:52:33;5.45;;;3.72;;
59972;SDS011;55298;-36.624;-64.282;2022-10-22T10:58:04;8.25;;;4.15;;
59972;SDS011;55298;-36.624;-64.282;2022-10-22T11:00:56;5.97;;;3.95;;
59972;SDS011;55298;-36.624;-64.282;2022-10-22T11:03:50;5.75;;;4.53;;
59972;SDS011;55298;-36.624;-64.282;2022-10-22T11:06:30;9.32;;;5.15;;
59972;SDS011;55298;-36.624;-64.282;2022-10-22T11:09:02;5.03;;;4.47;;
59972;SDS011;55298;-36.624;-64.282;2022-10-22T11:11:43;10.90;;;5.00;;
59972;SDS011;55298;-36.624;-64.282;2022-10-22T11:14:18;8.02;;;5.35;;
59972;SDS011;55298;-36.624;-64.282;2022-10-22T11:16:55;10.02;;;5.35;;
59972;SDS011;55298;-36.624;-64.282;2022-10-22T11:19:33;7.53;;;3.97;;
59972;SDS011;55298;-36.624;-64.282;2022-10-22T11:22:16;12.20;;;5.32;;
59972;SDS011;55298;-36.624;-64.282;2022-10-22T11:24:58;11.95;;;3.78;;
59972;SDS011;55298;-36.624;-64.282;2022-10-22T11:27:43;8.38;;;3.97;;
59972;SDS011;55298;-36.624;-64.282;2022-10-22T11:30:21;9.43;;;4.20;;
59972;SDS011;55298;-36.624;-64.282;2022-10-22T11:32:52;10.52;;;4.00;;
59972;SDS011;55298;-36.624;-64.282;2022-10-22T11:35:25;12.07;;;5.53;;
59972;SDS011;55298;-36.624;-64.282;2022-10-22T11:37:58;10.25;;;4.38;;
59972;SDS011;55298;-36.624;-64.282;2022-10-22T11:46:24;9.45;;;4.75;;
59972;SDS011;55298;-36.624;-64.282;2022-10-22T11:51:41;7.80;;;4.35;;
59972;SDS011;55298;-36.624;-64.282;2022-10-22T11:57:18;7.93;;;4.65;;
59972;SDS011;55298;-36.624;-64.282;2022-10-22T11:59:58;8.25;;;3.97;;
59972;SDS011;55298;-36.624;-64.282;2022-10-22T12:02:35;8.82;;;4.00;;
59972;SDS011;55298;-36.624;-64.282;2022-10-22T12:05:18;10.32;;;4.35;;
59972;SDS011;55298;-36.624;-64.282;2022-10-22T12:08:04;8.48;;;4.20;;
59972;SDS011;55298;-36.624;-64.282;2022-10-22T12:10:54;8.90;;;3.92;;
59972;SDS011;55298;-36.624;-64.282;2022-10-22T12:13:52;8.82;;;4.28;;
59972;SDS011;55298;-36.624;-64.282;2022-10-22T12:16:27;5.25;;;4.75;;
59972;SDS011;55298;-36.624;-64.282;2022-10-22T12:21:48;10.73;;;3.85;;
59972;SDS011;55298;-36.624;-64.282;2022-10-22T12:24:23;6.10;;;3.75;;
59972;SDS011;55298;-36.624;-64.282;2022-10-22T12:26:52;8.82;;;6.20;;
59972;SDS011;55298;-36.624;-64.282;2022-10-22T12:29:20;8.73;;;5.05;;
59972;SDS011;55298;-36.624;-64.282;2022-10-22T12:31:51;6.45;;;3.58;;
59972;SDS011;55298;-36.624;-64.282;2022-10-22T12:34:21;7.63;;;3.55;;
59972;SDS011;55298;-36.624;-64.282;2022-10-22T12:36:51;4.15;;;3.45;;
59972;SDS011;55298;-36.624;-64.282;2022-10-22T12:39:20;8.90;;;6.05;;
59972;SDS011;55298;-36.624;-64.282;2022-10-22T12:41:53;14.80;;;6.40;;
59972;SDS011;55298;-36.624;-64.282;2022-10-22T12:44:22;9.73;;;4.20;;
59972;SDS011;55298;-36.624;-64.282;2022-10-22T12:46:50;5.78;;;4.22;;
59972;SDS011;55298;-36.624;-64.282;2022-10-22T12:49:19;9.65;;;4.00;;
59972;SDS011;55298;-36.624;-64.282;2022-10-22T12:51:53;6.05;;;4.13;;
59972;SDS011;55298;-36.624;-64.282;2022-10-22T12:54:23;7.50;;;3.85;;
59972;SDS011;55298;-36.624;-64.282;2022-10-22T12:56:52;5.85;;;3.75;;
59972;SDS011;55298;-36.624;-64.282;2022-10-22T13:02:03;7.25;;;3.22;;
59972;SDS011;55298;-36.624;-64.282;2022-10-22T13:07:37;5.70;;;3.13;;
59972;SDS011;55298;-36.624;-64.282;2022-10-22T13:10:14;7.82;;;4.13;;
59972;SDS011;55298;-36.624;-64.282;2022-10-22T13:12:48;5.43;;;3.60;;
59972;SDS011;55298;-36.624;-64.282;2022-10-22T13:18:01;5.97;;;3.15;;
59972;SDS011;55298;-36.624;-64.282;2022-10-22T13:23:24;5.35;;;3.40;;
59972;SDS011;55298;-36.624;-64.282;2022-10-22T13:28:39;5.35;;;3.30;;
59972;SDS011;55298;-36.624;-64.282;2022-10-22T13:31:17;4.90;;;3.22;;
59972;SDS011;55298;-36.624;-64.282;2022-10-22T13:33:55;5.88;;;3.08;;
59972;SDS011;55298;-36.624;-64.282;2022-10-22T13:38:56;12.10;;;3.55;;
59972;SDS011;55298;-36.624;-64.282;2022-10-22T13:41:26;3.40;;;2.83;;
59972;SDS011;55298;-36.624;-64.282;2022-10-22T13:43:57;10.90;;;4.10;;
59972;SDS011;55298;-36.624;-64.282;2022-10-22T13:46:26;5.40;;;3.35;;
59972;SDS011;55298;-36.624;-64.282;2022-10-22T13:48:54;6.47;;;3.42;;
59972;SDS011;55298;-36.624;-64.282;2022-10-22T13:51:28;4.72;;;3.00;;
59972;SDS011;55298;-36.624;-64.282;2022-10-22T13:54:00;4.53;;;2.80;;
59972;SDS011;55298;-36.624;-64.282;2022-10-22T13:56:32;4.32;;;3.05;;
59972;SDS011;55298;-36.624;-64.282;2022-10-22T13:59:00;11.00;;;3.53;;
59972;SDS011;55298;-36.624;-64.282;2022-10-22T14:01:28;8.93;;;2.97;;
59972;SDS011;55298;-36.624;-64.282;2022-10-22T14:03:57;43.78;;;6.93;;
59972;SDS011;55298;-36.624;-64.282;2022-10-22T14:06:28;6.55;;;2.97;;
59972;SDS011;55298;-36.624;-64.282;2022-10-22T14:08:58;19.20;;;3.58;;
59972;SDS011;55298;-36.624;-64.282;2022-10-22T14:11:29;3.47;;;2.95;;
59972;SDS011;55298;-36.624;-64.282;2022-10-22T14:13:57;5.55;;;2.80;;
59972;SDS011;55298;-36.624;-64.282;2022-10-22T14:16:30;5.05;;;2.80;;
59972;SDS011;55298;-36.624;-64.282;2022-10-22T14:18:59;5.63;;;3.00;;
59972;SDS011;55298;-36.624;-64.282;2022-10-22T14:21:32;6.43;;;2.88;;
59972;SDS011;55298;-36.624;-64.282;2022-10-22T14:24:01;9.13;;;3.47;;
59972;SDS011;55298;-36.624;-64.282;2022-10-22T14:26:29;5.60;;;2.90;;
59972;SDS011;55298;-36.624;-64.282;2022-10-22T14:28:59;4.30;;;2.85;;
59972;SDS011;55298;-36.624;-64.282;2022-10-22T14:31:27;4.68;;;2.40;;
59972;SDS011;55298;-36.624;-64.282;2022-10-22T14:33:58;4.65;;;2.58;;
59972;SDS011;55298;-36.624;-64.282;2022-10-22T14:36:25;3.75;;;2.53;;
59972;SDS011;55298;-36.624;-64.282;2022-10-22T14:38:54;3.33;;;2.30;;
59972;SDS011;55298;-36.624;-64.282;2022-10-22T14:41:23;2.55;;;2.00;;
59972;SDS011;55298;-36.624;-64.282;2022-10-22T14:43:54;2.90;;;2.03;;
59972;SDS011;55298;-36.624;-64.282;2022-10-22T14:46:24;2.55;;;2.30;;
59972;SDS011;55298;-36.624;-64.282;2022-10-22T14:48:52;2.17;;;1.90;;
59972;SDS011;55298;-36.624;-64.282;2022-10-22T14:51:21;5.28;;;3.00;;
59972;SDS011;55298;-36.624;-64.282;2022-10-22T14:53:49;3.78;;;2.25;;
59972;SDS011;55298;-36.624;-64.282;2022-10-22T14:56:17;5.38;;;2.40;;
59972;SDS011;55298;-36.624;-64.282;2022-10-22T14:58:46;3.08;;;2.22;;
59972;SDS011;55298;-36.624;-64.282;2022-10-22T15:01:17;2.33;;;2.10;;
59972;SDS011;55298;-36.624;-64.282;2022-10-22T15:03:45;3.40;;;2.45;;
59972;SDS011;55298;-36.624;-64.282;2022-10-22T15:06:14;9.18;;;2.90;;
59972;SDS011;55298;-36.624;-64.282;2022-10-22T15:08:43;13.48;;;3.60;;
59972;SDS011;55298;-36.624;-64.282;2022-10-22T15:11:11;3.92;;;2.33;;
59972;SDS011;55298;-36.624;-64.282;2022-10-22T15:13:39;5.93;;;2.22;;
59972;SDS011;55298;-36.624;-64.282;2022-10-22T15:16:08;11.43;;;2.85;;
59972;SDS011;55298;-36.624;-64.282;2022-10-22T15:18:36;2.53;;;2.05;;
59972;SDS011;55298;-36.624;-64.282;2022-10-22T15:21:10;2.70;;;2.28;;
59972;SDS011;55298;-36.624;-64.282;2022-10-22T15:23:43;7.05;;;3.03;;
59972;SDS011;55298;-36.624;-64.282;2022-10-22T15:26:11;6.03;;;2.38;;
59972;SDS011;55298;-36.624;-64.282;2022-10-22T15:28:39;3.85;;;2.22;;
59972;SDS011;55298;-36.624;-64.282;2022-10-22T15:31:09;2.60;;;2.40;;
59972;SDS011;55298;-36.624;-64.282;2022-10-22T15:33:40;4.35;;;2.28;;
59972;SDS011;55298;-36.624;-64.282;2022-10-22T15:36:10;6.60;;;2.53;;
59972;SDS011;55298;-36.624;-64.282;2022-10-22T15:38:39;2.92;;;2.40;;
59972;SDS011;55298;-36.624;-64.282;2022-10-22T15:41:08;2.90;;;2.60;;
59972;SDS011;55298;-36.624;-64.282;2022-10-22T15:43:38;4.03;;;2.60;;
59972;SDS011;55298;-36.624;-64.282;2022-10-22T15:46:09;2.50;;;2.30;;
59972;SDS011;55298;-36.624;-64.282;2022-10-22T15:48:38;5.43;;;2.45;;
59972;SDS011;55298;-36.624;-64.282;2022-10-22T15:51:08;4.70;;;2.50;;
59972;SDS011;55298;-36.624;-64.282;2022-10-22T15:53:40;2.95;;;2.20;;
59972;SDS011;55298;-36.624;-64.282;2022-10-22T15:56:10;2.42;;;2.20;;
59972;SDS011;55298;-36.624;-64.282;2022-10-22T15:58:37;3.33;;;3.10;;